createdAt,value
2019-05-28T00:01:53.520Z,18.13
2019-05-28T00:04:24.820Z,18.10
2019-05-28T00:06:55.987Z,18.47
2019-05-28T00:09:27.221Z,18.20
2019-05-28T00:11:58.615Z,18.11
2019-05-28T00:14:29.894Z,18.06
2019-05-28T00:17:01.228Z,18.03
2019-05-28T00:19:32.453Z,18.01
2019-05-28T00:22:03.697Z,17.97
2019-05-28T00:24:35.009Z,17.96
2019-05-28T00:27:06.282Z,17.96
2019-05-28T00:29:37.527Z,17.95
2019-05-28T00:32:08.789Z,17.96
2019-05-28T00:34:40.011Z,17.95
2019-05-28T00:37:11.503Z,17.95
2019-05-28T00:39:42.737Z,17.95
2019-05-28T00:42:14.025Z,17.91
2019-05-28T00:44:46.424Z,17.88
2019-05-28T00:47:17.612Z,17.87
2019-05-28T00:49:49.720Z,17.87
2019-05-28T00:52:21.136Z,17.86
2019-05-28T00:54:52.594Z,17.84
2019-05-28T00:57:24.120Z,17.84
2019-05-28T00:59:55.861Z,17.84
2019-05-28T01:02:27.072Z,17.86
2019-05-28T01:04:58.302Z,17.85
2019-05-28T01:07:29.480Z,17.85
2019-05-28T01:10:01.055Z,17.83
2019-05-28T01:12:32.412Z,17.80
2019-05-28T01:15:03.594Z,17.77
2019-05-28T01:17:34.813Z,17.75
2019-05-28T01:20:06.851Z,17.73
2019-05-28T01:22:38.037Z,17.70
2019-05-28T01:25:09.246Z,17.68
2019-05-28T01:27:40.626Z,17.67
2019-05-28T01:30:11.934Z,17.64
2019-05-28T01:32:44.701Z,17.61
2019-05-28T01:35:15.949Z,17.59
2019-05-28T01:37:47.164Z,17.57
2019-05-28T01:40:18.489Z,17.55
2019-05-28T01:42:49.791Z,17.54
2019-05-28T01:45:21.686Z,17.53
2019-05-28T01:47:53.100Z,17.51
2019-05-28T01:50:24.329Z,17.50
2019-05-28T01:52:55.800Z,17.49
2019-05-28T01:55:27.362Z,17.48
2019-05-28T01:57:58.928Z,17.46
2019-05-28T02:00:30.222Z,17.42
2019-05-28T02:03:01.460Z,17.39
2019-05-28T02:05:32.677Z,17.38
2019-05-28T02:08:06.598Z,17.36
2019-05-28T02:10:38.070Z,17.34
2019-05-28T02:13:09.304Z,17.32
2019-05-28T02:15:40.504Z,17.29
2019-05-28T02:18:12.038Z,17.21
2019-05-28T02:20:43.387Z,17.13
2019-05-28T02:23:14.972Z,17.07
2019-05-28T02:25:46.299Z,17.01
2019-05-28T02:28:17.644Z,16.99
2019-05-28T02:30:48.889Z,16.98
2019-05-28T02:33:20.248Z,16.99
2019-05-28T02:35:51.461Z,16.99
2019-05-28T02:38:22.755Z,17.01
2019-05-28T02:40:53.977Z,16.99
2019-05-28T02:43:25.203Z,16.99
2019-05-28T02:45:56.450Z,16.98
2019-05-28T02:48:28.247Z,16.96
2019-05-28T02:51:01.623Z,16.96
2019-05-28T02:53:35.365Z,16.96
2019-05-28T02:56:06.635Z,16.96
2019-05-28T02:58:38.103Z,16.97
2019-05-28T03:01:09.338Z,16.97
2019-05-28T03:03:41.954Z,16.98
2019-05-28T03:06:14.773Z,16.96
2019-05-28T03:08:48.566Z,16.94
2019-05-28T03:11:19.795Z,16.91
2019-05-28T03:13:51.128Z,16.86
2019-05-28T03:16:25.104Z,16.82
2019-05-28T03:18:56.703Z,16.81
2019-05-28T03:21:28.388Z,16.81
2019-05-28T03:24:01.640Z,16.81
2019-05-28T03:26:33.643Z,16.81
2019-05-28T03:29:04.862Z,16.81
2019-05-28T03:31:36.337Z,16.81
2019-05-28T03:34:07.592Z,16.80
2019-05-28T03:36:38.825Z,16.78
2019-05-28T03:39:10.023Z,16.72
2019-05-28T03:41:41.299Z,16.65
2019-05-28T03:44:12.484Z,16.62
2019-05-28T03:46:43.688Z,16.61
2019-05-28T03:49:15.075Z,16.58
2019-05-28T03:51:46.599Z,16.55
2019-05-28T03:54:18.134Z,16.53
2019-05-28T03:56:49.946Z,16.49
2019-05-28T03:59:21.132Z,16.39
2019-05-28T04:01:52.558Z,16.32
2019-05-28T04:04:24.088Z,16.25
2019-05-28T04:06:55.399Z,16.24
2019-05-28T04:09:26.609Z,16.22
2019-05-28T04:11:58.077Z,16.23
2019-05-28T04:14:29.343Z,16.24
2019-05-28T04:17:00.547Z,16.27
2019-05-28T04:19:31.951Z,16.29
2019-05-28T04:22:03.337Z,16.31
2019-05-28T04:24:34.828Z,16.30
2019-05-28T04:27:06.398Z,16.27
2019-05-28T04:29:37.647Z,16.25
2019-05-28T04:32:09.025Z,16.22
2019-05-28T04:34:40.311Z,16.16
2019-05-28T04:37:11.653Z,16.16
2019-05-28T04:39:43.021Z,16.16
2019-05-28T04:42:14.313Z,16.15
2019-05-28T04:44:45.596Z,16.17
2019-05-28T04:47:16.770Z,16.19
2019-05-28T04:49:48.450Z,16.21
2019-05-28T04:52:19.898Z,16.22
2019-05-28T04:54:51.227Z,16.25
2019-05-28T04:57:22.631Z,16.27
2019-05-28T04:59:53.777Z,16.30
2019-05-28T05:02:25.031Z,16.29
2019-05-28T05:04:56.304Z,16.32
2019-05-28T05:07:27.546Z,16.32
2019-05-28T05:09:59.259Z,16.35
2019-05-28T05:12:30.642Z,16.37
2019-05-28T05:15:02.113Z,16.39
2019-05-28T05:17:33.535Z,16.40
2019-05-28T05:20:06.378Z,16.40
2019-05-28T05:22:37.949Z,16.42
2019-05-28T05:25:09.167Z,16.44
2019-05-28T05:27:40.355Z,16.48
2019-05-28T05:30:11.742Z,16.50
2019-05-28T05:32:42.983Z,16.53
2019-05-28T05:35:14.255Z,16.54
2019-05-28T05:37:45.505Z,16.55
2019-05-28T05:40:16.873Z,16.57
2019-05-28T05:42:48.172Z,16.56
2019-05-28T05:45:19.568Z,16.54
2019-05-28T05:47:51.264Z,16.53
2019-05-28T05:50:22.937Z,16.54
2019-05-28T05:52:54.556Z,16.53
2019-05-28T05:55:25.780Z,16.53
2019-05-28T05:57:57.127Z,16.54
2019-05-28T06:00:28.328Z,16.56
2019-05-28T06:02:59.615Z,16.59
2019-05-28T06:05:30.869Z,16.61
2019-05-28T06:08:02.170Z,16.61
2019-05-28T06:10:33.501Z,16.63
2019-05-28T06:13:04.835Z,16.64
2019-05-28T06:15:36.282Z,16.68
2019-05-28T06:18:08.112Z,16.69
2019-05-28T06:20:39.430Z,16.74
2019-05-28T06:23:10.713Z,16.78
2019-05-28T06:25:42.027Z,16.84
2019-05-28T06:28:13.278Z,16.89
2019-05-28T06:30:44.542Z,16.93
2019-05-28T06:33:15.782Z,16.97
2019-05-28T06:35:47.137Z,17.01
2019-05-28T06:38:18.502Z,17.04
2019-05-28T06:40:49.817Z,17.07
2019-05-28T06:43:21.062Z,17.12
2019-05-28T06:45:52.613Z,17.18
2019-05-28T06:48:24.017Z,17.22
2019-05-28T06:50:56.331Z,17.23
2019-05-28T06:53:27.573Z,17.26
2019-05-28T06:55:58.799Z,17.28
2019-05-28T06:58:39.469Z,17.32
2019-05-28T07:01:03.711Z,17.36
2019-05-28T07:03:35.433Z,17.41
2019-05-28T07:06:08.044Z,17.48
2019-05-28T07:08:39.572Z,17.50
2019-05-28T07:11:13.489Z,17.54
2019-05-28T07:13:45.699Z,17.58
2019-05-28T07:16:16.951Z,17.63
2019-05-28T07:18:48.188Z,17.64
2019-05-28T07:21:19.522Z,17.68
2019-05-28T07:23:50.765Z,17.72
2019-05-28T07:26:21.999Z,17.76
2019-05-28T07:28:53.296Z,17.81
2019-05-28T07:31:24.903Z,17.86
2019-05-28T07:33:57.209Z,17.90
2019-05-28T07:36:28.484Z,17.95
2019-05-28T07:38:59.706Z,17.99
2019-05-28T07:41:31.408Z,18.06
2019-05-28T07:44:02.710Z,18.10
2019-05-28T07:46:34.785Z,18.12
2019-05-28T07:49:05.941Z,18.16
2019-05-28T07:51:37.129Z,18.20
2019-05-28T07:54:08.290Z,18.26
2019-05-28T07:56:39.500Z,18.27
2019-05-28T07:59:10.884Z,18.30
2019-05-28T08:01:42.333Z,18.36
2019-05-28T08:04:13.801Z,18.39
2019-05-28T08:06:54.728Z,18.43
2019-05-28T08:09:18.100Z,18.44
2019-05-28T08:11:49.271Z,18.46
2019-05-28T08:14:20.438Z,18.48
2019-05-28T08:16:52.931Z,18.50
2019-05-28T08:19:24.447Z,18.53
2019-05-28T08:21:55.829Z,18.58
2019-05-28T08:24:27.100Z,18.61
2019-05-28T08:26:58.603Z,18.64
2019-05-28T08:29:29.924Z,18.67
2019-05-28T08:32:01.188Z,18.70
2019-05-28T08:34:32.432Z,18.70
2019-05-28T08:37:06.162Z,18.74
2019-05-28T08:39:36.861Z,18.76
2019-05-28T08:42:08.050Z,18.81
2019-05-28T08:44:39.305Z,18.85
2019-05-28T08:47:10.510Z,18.89
2019-05-28T08:49:41.787Z,18.96
2019-05-28T08:52:13.097Z,19.02
2019-05-28T08:54:44.384Z,19.04
2019-05-28T08:57:15.743Z,19.08
2019-05-28T08:59:47.042Z,19.10
2019-05-28T09:02:27.732Z,19.07
2019-05-28T09:04:51.096Z,19.03
2019-05-28T09:07:22.278Z,19.02
2019-05-28T09:09:53.497Z,19.03
2019-05-28T09:12:24.752Z,19.08
2019-05-28T09:14:56.684Z,19.14
2019-05-28T09:17:28.354Z,19.19
2019-05-28T09:19:59.619Z,19.21
2019-05-28T09:22:30.846Z,19.27
2019-05-28T09:25:02.359Z,19.34
2019-05-28T09:27:33.709Z,19.41
2019-05-28T09:30:05.869Z,19.45
2019-05-28T09:32:37.056Z,19.47
2019-05-28T09:35:08.340Z,19.46
2019-05-28T09:37:39.578Z,19.50
2019-05-28T09:40:11.729Z,19.51
2019-05-28T09:42:42.964Z,19.50
2019-05-28T09:45:23.466Z,19.52
2019-05-28T09:47:48.309Z,19.46
2019-05-28T09:50:30.388Z,19.50
2019-05-28T09:52:54.810Z,19.53
2019-05-28T09:55:25.751Z,19.55
2019-05-28T09:57:56.944Z,19.59
2019-05-28T10:00:28.669Z,19.61
2019-05-28T10:02:59.992Z,19.58
2019-05-28T10:05:31.341Z,19.55
2019-05-28T10:08:02.781Z,19.57
2019-05-28T10:10:34.250Z,19.58
2019-05-28T10:13:05.591Z,19.62
2019-05-28T10:15:36.823Z,19.69
2019-05-28T10:18:08.425Z,19.73
2019-05-28T10:20:40.488Z,19.72
2019-05-28T10:23:11.678Z,19.73
2019-05-28T10:25:42.904Z,19.74
2019-05-28T10:28:14.093Z,19.78
2019-05-28T10:30:45.413Z,19.80
2019-05-28T10:33:16.726Z,19.77
2019-05-28T10:35:48.059Z,19.79
2019-05-28T10:38:19.289Z,19.83
2019-05-28T10:40:50.697Z,19.84
2019-05-28T10:43:21.919Z,19.89
2019-05-28T10:45:53.436Z,19.92
2019-05-28T10:48:24.765Z,19.97
2019-05-28T10:50:55.901Z,20.01
2019-05-28T10:53:27.225Z,20.02
2019-05-28T10:55:58.388Z,20.02
2019-05-28T10:58:29.732Z,20.00
2019-05-28T11:01:00.831Z,20.05
2019-05-28T11:03:33.319Z,20.09
2019-05-28T11:06:04.719Z,20.11
2019-05-28T11:08:36.103Z,20.13
2019-05-28T11:11:07.508Z,20.16
2019-05-28T11:13:52.035Z,20.19
2019-05-28T11:16:12.024Z,20.21
2019-05-28T11:18:43.369Z,20.22
2019-05-28T11:21:14.522Z,20.22
2019-05-28T11:23:45.708Z,20.18
2019-05-28T11:26:16.980Z,20.14
2019-05-28T11:28:48.168Z,20.13
2019-05-28T11:31:19.552Z,20.13
2019-05-28T11:33:50.840Z,20.16
2019-05-28T11:36:22.068Z,20.21
2019-05-28T11:38:53.620Z,20.24
2019-05-28T11:41:40.942Z,20.23
2019-05-28T11:43:57.697Z,20.24
2019-05-28T11:46:30.034Z,20.24
2019-05-28T11:49:01.251Z,20.28
2019-05-28T11:51:33.413Z,20.31
2019-05-28T11:54:04.778Z,20.35
2019-05-28T11:56:36.116Z,20.38
2019-05-28T11:59:07.388Z,20.38
2019-05-28T12:01:38.739Z,20.40
2019-05-28T12:04:09.985Z,20.41
2019-05-28T12:06:41.210Z,20.42
2019-05-28T12:09:12.499Z,20.45
2019-05-28T12:11:43.633Z,20.47
2019-05-28T12:14:14.873Z,20.48
2019-05-28T12:16:46.069Z,20.50
2019-05-28T12:19:17.290Z,20.53
2019-05-28T12:21:48.542Z,20.54
2019-05-28T12:24:19.786Z,20.51
2019-05-28T12:26:51.120Z,20.50
2019-05-28T12:29:22.559Z,20.48
2019-05-28T12:31:53.987Z,20.47
2019-05-28T12:34:25.507Z,20.45
2019-05-28T12:36:56.676Z,20.45
2019-05-28T12:39:27.872Z,20.48
2019-05-28T12:42:03.065Z,20.50
2019-05-28T12:44:41.684Z,20.51
2019-05-28T12:47:04.816Z,20.51
2019-05-28T12:49:36.068Z,20.51
2019-05-28T12:52:07.711Z,20.53
2019-05-28T12:54:38.951Z,20.53
2019-05-28T12:57:10.369Z,20.57
2019-05-28T12:59:41.642Z,20.60
2019-05-28T13:02:12.806Z,20.64
2019-05-28T13:04:45.121Z,20.66
2019-05-28T13:07:16.303Z,20.68
2019-05-28T13:09:49.182Z,20.64
2019-05-28T13:12:20.429Z,20.62
2019-05-28T13:14:51.631Z,20.63
2019-05-28T13:17:22.851Z,20.67
2019-05-28T13:19:54.221Z,20.70
2019-05-28T13:22:25.496Z,20.70
2019-05-28T13:24:56.846Z,20.72
2019-05-28T13:27:27.985Z,20.77
2019-05-28T13:29:59.176Z,20.77
2019-05-28T13:32:30.393Z,20.77
2019-05-28T13:35:02.183Z,20.74
2019-05-28T13:37:33.674Z,20.75
2019-05-28T13:40:05.664Z,20.78
2019-05-28T13:42:37.013Z,20.80
2019-05-28T13:45:09.799Z,20.88
2019-05-28T13:47:41.333Z,20.97
2019-05-28T13:50:14.522Z,21.05
2019-05-28T13:52:45.791Z,21.18
2019-05-28T13:55:17.061Z,21.33
2019-05-28T13:57:48.416Z,21.48
2019-05-28T14:00:20.141Z,21.58
2019-05-28T14:02:51.385Z,21.64
2019-05-28T14:05:22.759Z,21.67
2019-05-28T14:07:54.118Z,21.67
2019-05-28T14:10:25.540Z,21.70
2019-05-28T14:12:57.078Z,21.73
2019-05-28T14:15:28.572Z,21.77
2019-05-28T14:17:59.886Z,21.79
2019-05-28T14:20:32.625Z,21.78
2019-05-28T14:23:03.832Z,21.74
2019-05-28T14:25:35.217Z,21.72
2019-05-28T14:28:06.583Z,21.69
2019-05-28T14:30:37.892Z,21.66
2019-05-28T14:33:09.215Z,21.67
2019-05-28T14:35:40.573Z,21.69
2019-05-28T14:38:12.085Z,21.72
2019-05-28T14:40:43.709Z,21.73
2019-05-28T14:43:15.303Z,21.71
2019-05-28T14:45:46.505Z,21.65
2019-05-28T14:48:17.853Z,21.56
2019-05-28T14:50:49.097Z,21.48
2019-05-28T14:53:20.406Z,21.42
2019-05-28T14:55:51.700Z,21.37
2019-05-28T14:58:23.092Z,21.35
2019-05-28T15:00:54.415Z,21.30
2019-05-28T15:03:26.953Z,21.24
2019-05-28T15:05:59.346Z,21.16
2019-05-28T15:08:30.714Z,21.08
2019-05-28T15:11:02.123Z,21.01
2019-05-28T15:13:33.423Z,20.94
2019-05-28T15:16:04.699Z,20.85
2019-05-28T15:18:37.018Z,20.79
2019-05-28T15:21:08.461Z,20.73
2019-05-28T15:23:39.810Z,20.65
2019-05-28T15:26:11.170Z,20.60
2019-05-28T15:28:42.632Z,20.53
2019-05-28T15:31:14.157Z,20.48
2019-05-28T15:33:45.499Z,20.46
2019-05-28T15:36:16.920Z,20.43
2019-05-28T15:38:48.437Z,20.39
2019-05-28T15:41:19.753Z,20.38
2019-05-28T15:43:51.400Z,20.33
2019-05-28T15:46:22.786Z,20.30
2019-05-28T15:48:54.086Z,20.28
2019-05-28T15:51:25.452Z,20.26
2019-05-28T15:53:56.854Z,20.26
2019-05-28T15:56:28.121Z,20.24
2019-05-28T15:58:59.629Z,20.23
2019-05-28T16:01:31.389Z,20.21
2019-05-28T16:04:02.857Z,20.22
2019-05-28T16:06:34.377Z,20.18
2019-05-28T16:09:07.633Z,20.15
2019-05-28T16:11:38.989Z,20.11
2019-05-28T16:14:10.221Z,20.08
2019-05-28T16:16:41.501Z,20.03
2019-05-28T16:19:12.756Z,20.00
2019-05-28T16:21:44.197Z,19.99
2019-05-28T16:24:17.095Z,19.98
2019-05-28T16:26:48.498Z,19.96
2019-05-28T16:29:19.793Z,19.92
2019-05-28T16:31:51.193Z,19.87
2019-05-28T16:34:22.498Z,19.86
2019-05-28T16:36:53.832Z,19.82
2019-05-28T16:39:25.223Z,19.78
2019-05-28T16:41:56.513Z,19.76
2019-05-28T16:44:27.862Z,19.74
2019-05-28T16:47:15.203Z,19.71
2019-05-28T16:49:32.510Z,19.70
2019-05-28T16:52:04.181Z,19.67
2019-05-28T16:54:35.824Z,19.66
2019-05-28T16:57:07.112Z,19.61
2019-05-28T16:59:38.439Z,19.57
2019-05-28T17:02:09.847Z,19.53
2019-05-28T17:04:41.184Z,19.50
2019-05-28T17:07:12.521Z,19.44
2019-05-28T17:09:43.930Z,19.42
2019-05-28T17:12:15.320Z,19.39
2019-05-28T17:14:46.725Z,19.40
2019-05-28T17:17:18.282Z,19.38
2019-05-28T17:19:49.779Z,19.36
2019-05-28T17:22:21.260Z,19.33
2019-05-28T17:24:52.590Z,19.32
2019-05-28T17:27:23.917Z,19.31
2019-05-28T17:30:13.385Z,19.29
2019-05-28T17:32:28.261Z,19.27
2019-05-28T17:34:59.482Z,19.28
2019-05-28T17:37:30.757Z,19.28
2019-05-28T17:40:02.030Z,19.27
2019-05-28T17:42:33.525Z,19.28
2019-05-28T17:45:06.990Z,19.27
2019-05-28T17:47:43.456Z,19.26
2019-05-28T17:50:11.847Z,19.24
2019-05-28T17:52:43.292Z,19.23
2019-05-28T17:55:14.691Z,19.20
2019-05-28T17:57:46.051Z,19.19
2019-05-28T18:00:17.447Z,19.17
2019-05-28T18:02:49.023Z,19.15
2019-05-28T18:05:20.680Z,19.15
2019-05-28T18:07:52.035Z,19.49
2019-05-28T18:10:23.556Z,19.31
2019-05-28T18:12:54.893Z,19.25
2019-05-28T18:15:26.402Z,19.21
2019-05-28T18:17:57.734Z,19.12
2019-05-28T18:20:29.028Z,18.93
2019-05-28T18:23:00.346Z,18.67
2019-05-28T18:25:31.621Z,18.44
2019-05-28T18:28:02.843Z,18.13
2019-05-28T18:30:34.118Z,17.91
2019-05-28T18:33:05.557Z,17.70
2019-05-28T18:35:37.042Z,17.61
2019-05-28T18:38:08.651Z,17.39
2019-05-28T18:40:40.112Z,17.20
2019-05-28T18:43:11.340Z,16.92
2019-05-28T18:45:42.695Z,16.72
2019-05-28T18:48:13.988Z,16.55
2019-05-28T18:50:46.489Z,16.41
2019-05-28T18:53:17.823Z,16.33
2019-05-28T18:55:50.311Z,16.30
2019-05-28T18:58:21.754Z,16.31
2019-05-28T19:00:53.481Z,16.24
2019-05-28T19:03:24.828Z,16.18
2019-05-28T19:05:57.153Z,16.15
2019-05-28T19:08:28.468Z,16.14
2019-05-28T19:10:59.710Z,16.17
2019-05-28T19:13:31.486Z,16.14
2019-05-28T19:16:02.822Z,16.12
2019-05-28T19:18:34.145Z,16.16
2019-05-28T19:21:05.502Z,16.19
2019-05-28T19:23:38.058Z,16.23
2019-05-28T19:26:09.627Z,16.25
2019-05-28T19:28:41.214Z,16.28
2019-05-28T19:31:12.584Z,16.29
2019-05-28T19:33:45.743Z,16.32
2019-05-28T19:36:17.475Z,16.34
2019-05-28T19:38:50.559Z,16.34
2019-05-28T19:41:21.813Z,16.35
2019-05-28T19:43:54.535Z,16.35
2019-05-28T19:46:25.798Z,16.35
2019-05-28T19:48:57.343Z,16.37
2019-05-28T19:51:28.499Z,16.38
2019-05-28T19:54:00.911Z,16.42
2019-05-28T19:56:32.340Z,16.43
2019-05-28T19:59:03.856Z,16.43
2019-05-28T20:01:35.052Z,16.43
2019-05-28T20:04:06.369Z,16.46
2019-05-28T20:06:37.527Z,16.50
2019-05-28T20:09:09.114Z,16.55
2019-05-28T20:11:40.550Z,16.56
2019-05-28T20:14:12.228Z,16.60
2019-05-28T20:16:45.050Z,16.63
2019-05-28T20:19:16.369Z,16.65
2019-05-28T20:21:51.861Z,16.67
2019-05-28T20:24:20.549Z,16.69
2019-05-28T20:26:51.895Z,16.70
2019-05-28T20:29:23.333Z,16.70
2019-05-28T20:31:54.560Z,16.71
2019-05-28T20:34:25.749Z,16.72
2019-05-28T20:36:57.181Z,16.71
2019-05-28T20:39:28.638Z,16.70
2019-05-28T20:41:59.957Z,16.70
2019-05-28T20:44:33.667Z,16.70
2019-05-28T20:47:06.924Z,16.68
2019-05-28T20:49:38.237Z,16.66
2019-05-28T20:52:09.460Z,16.65
2019-05-28T20:54:40.867Z,16.65
2019-05-28T20:57:12.425Z,16.64
2019-05-28T20:59:43.956Z,16.62
2019-05-28T21:02:15.195Z,16.62
2019-05-28T21:04:47.808Z,16.63
2019-05-28T21:07:19.222Z,16.62
2019-05-28T21:09:50.502Z,16.62
2019-05-28T21:12:21.733Z,16.63
2019-05-28T21:14:53.102Z,16.66
2019-05-28T21:17:24.328Z,16.67
2019-05-28T21:19:55.461Z,16.67
2019-05-28T21:22:27.237Z,16.68
2019-05-28T21:24:59.014Z,16.68
2019-05-28T21:27:30.616Z,16.66
2019-05-28T21:30:02.183Z,16.65
2019-05-28T21:32:33.415Z,16.63
2019-05-28T21:35:05.027Z,16.62
2019-05-28T21:37:36.199Z,16.63
2019-05-28T21:40:07.815Z,16.63
2019-05-28T21:42:39.024Z,16.63
2019-05-28T21:45:10.610Z,16.63
2019-05-28T21:47:41.931Z,16.65
2019-05-28T21:50:13.780Z,16.65
2019-05-28T21:52:45.296Z,16.67
2019-05-28T21:55:16.977Z,16.66
2019-05-28T21:57:48.336Z,16.66
2019-05-28T22:00:37.520Z,16.64
2019-05-28T22:03:09.302Z,16.62
2019-05-28T22:05:40.540Z,16.61
2019-05-28T22:08:11.750Z,16.60
2019-05-28T22:10:42.951Z,16.58
2019-05-28T22:13:21.792Z,16.56
2019-05-28T22:15:48.324Z,16.56
2019-05-28T22:18:19.574Z,16.55
2019-05-28T22:20:51.713Z,16.52
2019-05-28T22:23:23.029Z,16.50
2019-05-28T22:25:54.219Z,16.76
2019-05-28T22:28:25.347Z,16.76
2019-05-28T22:30:57.653Z,16.59
2019-05-28T22:33:29.098Z,16.54
2019-05-28T22:36:01.361Z,16.50
2019-05-28T22:38:32.920Z,16.46
2019-05-28T22:41:04.531Z,16.41
2019-05-28T22:43:35.731Z,16.37
2019-05-28T22:46:07.343Z,16.37
2019-05-28T22:48:38.639Z,16.36
2019-05-28T22:51:09.804Z,16.35
2019-05-28T22:53:41.139Z,16.34
2019-05-28T22:56:12.307Z,16.32
2019-05-28T22:58:43.619Z,16.28
2019-05-28T23:01:14.835Z,16.26
2019-05-28T23:03:46.339Z,16.24
2019-05-28T23:06:17.709Z,16.20
2019-05-28T23:08:48.984Z,16.16
2019-05-28T23:11:20.307Z,16.16
2019-05-28T23:13:51.511Z,16.14
2019-05-28T23:16:22.700Z,16.11
2019-05-28T23:18:53.923Z,16.11
2019-05-28T23:21:25.165Z,16.09
2019-05-28T23:23:56.398Z,16.08
2019-05-28T23:26:27.642Z,16.07
2019-05-28T23:28:58.871Z,16.07
2019-05-28T23:31:30.047Z,16.04
2019-05-28T23:34:02.198Z,16.00
2019-05-28T23:36:33.653Z,15.99
2019-05-28T23:39:06.985Z,15.97
2019-05-28T23:41:38.164Z,15.96
2019-05-28T23:44:09.640Z,15.96
2019-05-28T23:46:40.854Z,15.94
2019-05-28T23:49:12.288Z,15.90
2019-05-28T23:51:43.521Z,15.88
2019-05-28T23:54:14.754Z,15.85
2019-05-28T23:56:45.996Z,15.83
2019-05-28T23:59:18.045Z,15.82
